sensor_id;sensor_type;location;lat;lon;timestamp;P1;durP1;ratioP1;P2;durP2;ratioP2
52438;SDS011;38359;53.150;6.504;2023-01-06T00:03:19;63.50;;;15.00;;
52438;SDS011;38359;53.150;6.504;2023-01-06T00:13:45;52.58;;;11.02;;
52438;SDS011;38359;53.150;6.504;2023-01-06T00:24:10;61.53;;;12.70;;
52438;SDS011;38359;53.150;6.504;2023-01-06T00:34:36;45.67;;;12.63;;
52438;SDS011;38359;53.150;6.504;2023-01-06T00:45:02;51.30;;;11.98;;
52438;SDS011;38359;53.150;6.504;2023-01-06T00:55:28;52.60;;;13.15;;
52438;SDS011;38359;53.150;6.504;2023-01-06T01:05:57;46.08;;;10.85;;
52438;SDS011;38359;53.150;6.504;2023-01-06T01:16:26;29.92;;;7.72;;
52438;SDS011;38359;53.150;6.504;2023-01-06T01:26:52;26.35;;;5.57;;
52438;SDS011;38359;53.150;6.504;2023-01-06T01:37:17;18.40;;;5.05;;
52438;SDS011;38359;53.150;6.504;2023-01-06T01:47:45;26.45;;;6.03;;
52438;SDS011;38359;53.150;6.504;2023-01-06T01:58:21;21.58;;;6.40;;
52438;SDS011;38359;53.150;6.504;2023-01-06T02:09:05;25.38;;;6.78;;
52438;SDS011;38359;53.150;6.504;2023-01-06T02:42:28;24.85;;;6.60;;
52438;SDS011;38359;53.150;6.504;2023-01-06T02:53:09;18.67;;;4.93;;
52438;SDS011;38359;53.150;6.504;2023-01-06T03:03:56;18.65;;;4.45;;
52438;SDS011;38359;53.150;6.504;2023-01-06T03:14:28;16.38;;;4.30;;
52438;SDS011;38359;53.150;6.504;2023-01-06T03:24:59;20.75;;;4.50;;
52438;SDS011;38359;53.150;6.504;2023-01-06T03:46:36;14.25;;;4.95;;
52438;SDS011;38359;53.150;6.504;2023-01-06T03:57:08;14.82;;;6.10;;
52438;SDS011;38359;53.150;6.504;2023-01-06T04:07:40;18.27;;;7.50;;
52438;SDS011;38359;53.150;6.504;2023-01-06T04:18:07;14.85;;;7.32;;
52438;SDS011;38359;53.150;6.504;2023-01-06T04:28:33;16.42;;;6.35;;
52438;SDS011;38359;53.150;6.504;2023-01-06T04:39:02;11.68;;;5.05;;
52438;SDS011;38359;53.150;6.504;2023-01-06T04:49:28;13.05;;;4.45;;
52438;SDS011;38359;53.150;6.504;2023-01-06T04:59:54;13.23;;;4.50;;
52438;SDS011;38359;53.150;6.504;2023-01-06T05:10:20;11.20;;;3.17;;
52438;SDS011;38359;53.150;6.504;2023-01-06T05:20:52;9.63;;;3.10;;
52438;SDS011;38359;53.150;6.504;2023-01-06T05:31:19;8.02;;;3.40;;
52438;SDS011;38359;53.150;6.504;2023-01-06T05:41:44;10.85;;;5.72;;
52438;SDS011;38359;53.150;6.504;2023-01-06T05:52:10;14.65;;;7.32;;
52438;SDS011;38359;53.150;6.504;2023-01-06T06:02:36;16.60;;;9.77;;
52438;SDS011;38359;53.150;6.504;2023-01-06T06:13:02;17.30;;;10.95;;
52438;SDS011;38359;53.150;6.504;2023-01-06T06:23:28;16.50;;;10.15;;
52438;SDS011;38359;53.150;6.504;2023-01-06T06:33:55;17.52;;;9.02;;
52438;SDS011;38359;53.150;6.504;2023-01-06T06:44:23;11.27;;;8.00;;
52438;SDS011;38359;53.150;6.504;2023-01-06T06:54:49;21.13;;;10.90;;
52438;SDS011;38359;53.150;6.504;2023-01-06T07:05:15;13.93;;;10.68;;
52438;SDS011;38359;53.150;6.504;2023-01-06T07:15:41;10.88;;;8.68;;
52438;SDS011;38359;53.150;6.504;2023-01-06T07:26:07;11.80;;;5.82;;
52438;SDS011;38359;53.150;6.504;2023-01-06T07:36:33;7.78;;;3.75;;
52438;SDS011;38359;53.150;6.504;2023-01-06T07:46:59;6.78;;;2.67;;
52438;SDS011;38359;53.150;6.504;2023-01-06T07:57:25;8.07;;;2.08;;
52438;SDS011;38359;53.150;6.504;2023-01-06T08:07:51;10.30;;;1.58;;
52438;SDS011;38359;53.150;6.504;2023-01-06T08:18:17;7.63;;;1.38;;
52438;SDS011;38359;53.150;6.504;2023-01-06T08:28:44;18.33;;;6.95;;
52438;SDS011;38359;53.150;6.504;2023-01-06T08:39:11;13.80;;;1.60;;
52438;SDS011;38359;53.150;6.504;2023-01-06T08:49:38;8.80;;;1.70;;
52438;SDS011;38359;53.150;6.504;2023-01-06T09:00:04;22.48;;;1.58;;
52438;SDS011;38359;53.150;6.504;2023-01-06T09:10:31;23.35;;;5.50;;
52438;SDS011;38359;53.150;6.504;2023-01-06T09:20:56;19.80;;;2.97;;
52438;SDS011;38359;53.150;6.504;2023-01-06T09:31:22;17.98;;;2.20;;
52438;SDS011;38359;53.150;6.504;2023-01-06T09:52:56;18.15;;;2.67;;
52438;SDS011;38359;53.150;6.504;2023-01-06T10:03:36;19.10;;;2.40;;
52438;SDS011;38359;53.150;6.504;2023-01-06T10:35:53;13.23;;;2.10;;
52438;SDS011;38359;53.150;6.504;2023-01-06T10:46:20;17.05;;;1.85;;
52438;SDS011;38359;53.150;6.504;2023-01-06T10:56:54;14.13;;;2.10;;
52438;SDS011;38359;53.150;6.504;2023-01-06T11:07:25;14.75;;;2.03;;
52438;SDS011;38359;53.150;6.504;2023-01-06T11:17:51;24.55;;;3.45;;
52438;SDS011;38359;53.150;6.504;2023-01-06T11:28:18;16.33;;;2.13;;
52438;SDS011;38359;53.150;6.504;2023-01-06T11:38:46;16.48;;;2.15;;
52438;SDS011;38359;53.150;6.504;2023-01-06T12:11:05;15.20;;;2.03;;
52438;SDS011;38359;53.150;6.504;2023-01-06T12:21:37;22.75;;;3.13;;
52438;SDS011;38359;53.150;6.504;2023-01-06T13:44:14;12.85;;;2.13;;
52438;SDS011;38359;53.150;6.504;2023-01-06T14:15:57;21.45;;;3.08;;
52438;SDS011;38359;53.150;6.504;2023-01-06T14:26:44;16.60;;;2.70;;
52438;SDS011;38359;53.150;6.504;2023-01-06T14:37:26;17.95;;;3.08;;
52438;SDS011;38359;53.150;6.504;2023-01-06T14:48:00;16.63;;;2.90;;
52438;SDS011;38359;53.150;6.504;2023-01-06T14:58:34;20.80;;;3.20;;
52438;SDS011;38359;53.150;6.504;2023-01-06T15:09:11;23.40;;;2.80;;
52438;SDS011;38359;53.150;6.504;2023-01-06T15:19:44;20.00;;;2.80;;
52438;SDS011;38359;53.150;6.504;2023-01-06T15:30:13;16.00;;;2.25;;
52438;SDS011;38359;53.150;6.504;2023-01-06T15:40:43;17.10;;;3.13;;
52438;SDS011;38359;53.150;6.504;2023-01-06T15:51:13;35.20;;;3.97;;
52438;SDS011;38359;53.150;6.504;2023-01-06T16:01:49;30.90;;;4.37;;
52438;SDS011;38359;53.150;6.504;2023-01-06T16:12:18;24.88;;;4.57;;
52438;SDS011;38359;53.150;6.504;2023-01-06T16:22:49;25.55;;;4.20;;
52438;SDS011;38359;53.150;6.504;2023-01-06T16:33:40;20.23;;;3.67;;
52438;SDS011;38359;53.150;6.504;2023-01-06T16:44:11;27.42;;;5.22;;
52438;SDS011;38359;53.150;6.504;2023-01-06T16:54:39;28.60;;;4.03;;
52438;SDS011;38359;53.150;6.504;2023-01-06T17:05:10;23.45;;;4.18;;
52438;SDS011;38359;53.150;6.504;2023-01-06T17:15:56;19.98;;;4.13;;
52438;SDS011;38359;53.150;6.504;2023-01-06T17:26:26;23.77;;;4.97;;
52438;SDS011;38359;53.150;6.504;2023-01-06T17:36:54;32.58;;;6.10;;
52438;SDS011;38359;53.150;6.504;2023-01-06T17:57:46;30.43;;;6.43;;
52438;SDS011;38359;53.150;6.504;2023-01-06T18:08:12;26.08;;;5.32;;
52438;SDS011;38359;53.150;6.504;2023-01-06T18:18:40;22.40;;;3.47;;
52438;SDS011;38359;53.150;6.504;2023-01-06T18:39:44;23.67;;;3.88;;
52438;SDS011;38359;53.150;6.504;2023-01-06T19:01:04;26.17;;;7.20;;
52438;SDS011;38359;53.150;6.504;2023-01-06T19:12:10;25.00;;;7.05;;
52438;SDS011;38359;53.150;6.504;2023-01-06T19:22:48;25.40;;;7.97;;
52438;SDS011;38359;53.150;6.504;2023-01-06T19:54:35;16.50;;;5.40;;
52438;SDS011;38359;53.150;6.504;2023-01-06T20:05:03;15.70;;;4.97;;
52438;SDS011;38359;53.150;6.504;2023-01-06T20:15:29;23.33;;;5.50;;
52438;SDS011;38359;53.150;6.504;2023-01-06T20:25:55;17.25;;;5.13;;
52438;SDS011;38359;53.150;6.504;2023-01-06T20:36:21;17.30;;;6.07;;
52438;SDS011;38359;53.150;6.504;2023-01-06T20:46:47;18.13;;;6.20;;
52438;SDS011;38359;53.150;6.504;2023-01-06T20:57:13;25.63;;;8.63;;
52438;SDS011;38359;53.150;6.504;2023-01-06T21:07:39;31.02;;;12.85;;
52438;SDS011;38359;53.150;6.504;2023-01-06T21:18:05;36.63;;;9.88;;
52438;SDS011;38359;53.150;6.504;2023-01-06T21:28:31;21.40;;;9.52;;
52438;SDS011;38359;53.150;6.504;2023-01-06T21:38:56;24.77;;;10.13;;
52438;SDS011;38359;53.150;6.504;2023-01-06T21:49:23;33.95;;;11.63;;
52438;SDS011;38359;53.150;6.504;2023-01-06T21:59:49;34.50;;;12.07;;
52438;SDS011;38359;53.150;6.504;2023-01-06T22:10:15;37.70;;;13.90;;
52438;SDS011;38359;53.150;6.504;2023-01-06T22:20:45;37.50;;;15.93;;
52438;SDS011;38359;53.150;6.504;2023-01-06T22:31:11;42.78;;;16.63;;
52438;SDS011;38359;53.150;6.504;2023-01-06T22:41:37;42.13;;;20.65;;
52438;SDS011;38359;53.150;6.504;2023-01-06T22:52:03;47.65;;;20.60;;
52438;SDS011;38359;53.150;6.504;2023-01-06T23:02:29;48.65;;;22.30;;
52438;SDS011;38359;53.150;6.504;2023-01-06T23:12:55;60.20;;;27.92;;
52438;SDS011;38359;53.150;6.504;2023-01-06T23:23:20;63.28;;;29.73;;
52438;SDS011;38359;53.150;6.504;2023-01-06T23:33:50;68.25;;;32.53;;
52438;SDS011;38359;53.150;6.504;2023-01-06T23:44:22;72.18;;;34.15;;
52438;SDS011;38359;53.150;6.504;2023-01-06T23:54:48;79.30;;;38.15;;
